Time;durP1;ratioP1;P1;durP2;ratioP2;P2;SDS_P1;SDS_P2;PMS_P1;PMS_P2;Temp;Humidity;BMP_temperature;BMP_pressure;BME280_temperature;BME280_humidity;BME280_pressure;Samples;Min_cycle;Max_cycle;Signal;HPM_P1;HPM_P2
2020/12/28 00:01:35;;;;;;;35.95;24.23;;;;;;;8.88;100.00;101337.05;1683967;85;21217;-79
2020/12/28 00:04:03;;;;;;;39.30;23.52;;;;;;;8.86;100.00;101331.95;1684088;84;21521;-79
2020/12/28 00:06:59;;;;;;;38.85;22.98;;;;;;;8.86;100.00;101331.95;1684207;85;21142;-81
2020/12/28 00:09:27;;;;;;;36.93;23.50;;;;;;;8.87;100.00;101324.55;1684135;84;21165;-79
2020/12/28 00:11:56;;;;;;;42.45;24.95;;;;;;;8.87;100.00;101336.20;1683837;85;21185;-79
2020/12/28 00:14:24;;;;;;;42.43;24.40;;;;;;;8.87;100.00;101324.55;1684205;84;21102;-79
2020/12/28 00:16:54;;;;;;;42.13;23.18;;;;;;;8.89;100.00;101313.69;1684036;84;21092;-81
2020/12/28 00:19:21;;;;;;;37.75;22.65;;;;;;;8.92;100.00;101319.17;1684137;85;21107;-80
2020/12/28 00:21:49;;;;;;;42.67;24.37;;;;;;;8.95;100.00;101310.80;1684031;84;21079;-79
2020/12/28 00:24:17;;;;;;;41.68;23.38;;;;;;;8.95;100.00;101319.02;1683986;84;21209;-80
2020/12/28 00:26:46;;;;;;;44.50;24.07;;;;;;;8.95;100.00;101317.27;1684095;84;21158;-77
2020/12/28 00:29:14;;;;;;;41.18;23.20;;;;;;;8.97;100.00;101316.73;1684000;85;21162;-79
2020/12/28 00:31:43;;;;;;;40.30;23.87;;;;;;;9.00;100.00;101310.55;1684012;84;21090;-80
2020/12/28 00:34:11;;;;;;;42.85;24.55;;;;;;;9.00;100.00;101304.08;1684032;85;21585;-79
2020/12/28 00:36:39;;;;;;;40.98;23.98;;;;;;;9.00;100.00;101298.91;1684247;84;22219;-79
2020/12/28 00:39:07;;;;;;;40.85;24.12;;;;;;;8.99;100.00;101311.04;1684101;85;21168;-82
2020/12/28 00:41:34;;;;;;;45.78;23.80;;;;;;;9.01;100.00;101302.73;1683962;84;21185;-79
2020/12/28 00:44:02;;;;;;;40.35;24.37;;;;;;;9.03;100.00;101306.52;1684060;84;21589;-79
2020/12/28 00:46:30;;;;;;;49.63;25.37;;;;;;;9.04;100.00;101301.28;1684075;84;21095;-81
2020/12/28 00:48:59;;;;;;;41.75;23.90;;;;;;;9.04;100.00;101294.81;1684170;84;22093;-80
2020/12/28 00:51:27;;;;;;;41.80;23.57;;;;;;;9.06;100.00;101294.75;1659822;85;21241;-81
2020/12/28 00:53:55;;;;;;;46.68;24.50;;;;;;;9.10;100.00;101287.64;1670142;86;21197;-78
2020/12/28 00:56:23;;;;;;;42.83;24.55;;;;;;;9.11;100.00;101284.15;1670198;86;21230;-80
2020/12/28 00:58:52;;;;;;;51.98;25.05;;;;;;;9.12;100.00;101276.77;1670061;84;21242;-79
2020/12/28 01:01:21;;;;;;;46.23;25.17;;;;;;;9.10;100.00;101270.36;1670094;84;21209;-81
2020/12/28 01:03:49;;;;;;;48.80;25.50;;;;;;;9.10;100.00;101260.00;1669954;84;21190;-78
2020/12/28 01:06:17;;;;;;;41.28;25.43;;;;;;;9.11;100.00;101258.25;1670059;84;21138;-81
2020/12/28 01:08:46;;;;;;;43.13;25.62;;;;;;;9.10;100.00;101247.06;1669014;86;21146;-80
2020/12/28 01:11:21;;;;;;;41.65;24.35;;;;;;;9.07;100.00;101232.97;1670134;85;21178;-80
2020/12/28 01:13:51;;;;;;;40.38;24.43;;;;;;;9.10;100.00;101241.03;1669260;86;21608;-80
2020/12/28 01:16:21;;;;;;;49.40;26.52;;;;;;;9.11;100.00;101235.80;1669971;84;21163;-80
2020/12/28 01:18:49;;;;;;;48.52;27.00;;;;;;;9.12;100.00;101243.95;1670219;86;21179;-80
2020/12/28 01:21:21;;;;;;;40.28;25.60;;;;;;;9.12;100.00;101237.48;1668985;86;21199;-78
2020/12/28 01:23:49;;;;;;;50.03;27.37;;;;;;;9.12;100.00;101224.98;1670138;84;21226;-80
2020/12/28 01:26:17;;;;;;;41.92;25.17;;;;;;;9.11;100.00;101216.83;1669996;84;21207;-79
2020/12/28 01:28:47;;;;;;;39.15;24.15;;;;;;;9.12;100.00;101218.06;1664352;86;21190;-80
2020/12/28 01:31:15;;;;;;;55.63;28.55;;;;;;;9.13;100.00;101224.05;1669986;84;21218;-78
2020/12/28 01:34:01;;;;;;;46.77;25.32;;;;;;;9.11;100.00;101216.83;1670116;86;21214;-80
2020/12/28 01:36:31;;;;;;;45.92;26.17;;;;;;;9.10;100.00;101213.84;1664291;86;21514;-80
2020/12/28 01:39:01;;;;;;;44.53;26.27;;;;;;;9.09;100.00;101207.02;1670031;84;21283;-82
2020/12/28 01:41:29;;;;;;;41.10;25.43;;;;;;;9.09;100.00;101200.55;1669914;84;21214;-79
2020/12/28 01:43:57;;;;;;;40.92;24.95;;;;;;;9.06;100.00;101188.61;1670077;84;21036;-80
2020/12/28 01:46:25;;;;;;;49.05;25.35;;;;;;;9.07;100.00;101190.70;1670078;85;21060;-80
2020/12/28 01:48:55;;;;;;;45.30;25.65;;;;;;;9.07;100.00;101185.53;1670047;85;21201;-80
2020/12/28 01:51:25;;;;;;;52.05;26.73;;;;;;;9.07;100.00;101182.48;1671114;84;21698;-78
2020/12/28 01:53:53;;;;;;;48.45;26.75;;;;;;;9.07;100.00;101172.59;1648377;85;21207;-80
2020/12/28 01:56:23;;;;;;;42.65;25.52;;;;;;;9.06;100.00;101175.66;1671039;85;21670;-82
2020/12/28 01:58:53;;;;;;;46.50;26.90;;;;;;;9.06;100.00;101171.78;1675239;85;21246;-83
2020/12/28 02:01:24;;;;;;;45.43;26.12;;;;;;;9.06;100.00;101161.42;1675397;85;21190;-80
2020/12/28 02:03:52;;;;;;;50.10;26.60;;;;;;;9.06;100.00;101157.98;1675244;84;21903;-82
2020/12/28 02:06:27;;;;;;;49.27;25.20;;;;;;;9.04;100.00;101155.02;1674629;85;21515;-80
2020/12/28 02:08:57;;;;;;;45.38;26.45;;;;;;;9.04;100.00;101160.19;1675333;84;21202;-79
2020/12/28 02:11:29;;;;;;;42.53;26.75;;;;;;;9.04;100.00;101154.17;1675082;84;21531;-78
2020/12/28 02:13:57;;;;;;;45.55;25.35;;;;;;;9.06;100.00;101160.13;1675212;85;21665;-80
2020/12/28 02:16:27;;;;;;;46.23;27.40;;;;;;;9.06;100.00;101157.98;1673081;85;21507;-80
2020/12/28 02:19:00;;;;;;;45.40;26.52;;;;;;;9.05;100.00;101154.56;1674124;85;21162;-82
2020/12/28 02:21:29;;;;;;;44.60;26.60;;;;;;;9.06;100.00;101155.41;1674536;85;21165;-79
2020/12/28 02:23:58;;;;;;;41.05;26.30;;;;;;;9.06;100.00;101151.06;1675267;84;21201;-81
2020/12/28 02:26:26;;;;;;;50.67;26.75;;;;;;;9.06;100.00;101147.18;1647288;85;21147;-80
2020/12/28 02:28:54;;;;;;;39.67;24.87;;;;;;;9.05;100.00;101146.80;1675255;84;21900;-81
2020/12/28 02:31:22;;;;;;;41.83;24.52;;;;;;;9.07;100.00;101159.64;1675244;84;20981;-84
2020/12/28 02:34:08;;;;;;;46.85;25.35;;;;;;;9.06;100.00;101156.70;1675220;85;21618;-81
2020/12/28 02:36:38;;;;;;;42.95;25.32;;;;;;;9.07;100.00;101150.12;1674331;85;21067;-81
2020/12/28 02:39:07;;;;;;;41.60;25.37;;;;;;;9.06;100.00;101126.92;1675126;85;21138;-80
2020/12/28 02:41:35;;;;;;;41.75;26.02;;;;;;;9.04;100.00;101126.53;1675135;84;21504;-79
2020/12/28 02:44:21;;;;;;;43.60;26.33;;;;;;;9.05;100.00;101114.44;1675172;85;21078;-81
2020/12/28 02:47:07;;;;;;;48.48;25.92;;;;;;;9.06;100.00;101124.34;1674997;85;21162;-81
2020/12/28 02:49:53;;;;;;;37.95;24.07;;;;;;;9.03;100.00;101117.09;1675101;85;21190;-81
2020/12/28 02:52:39;;;;;;;42.55;24.92;;;;;;;9.02;100.00;101104.24;1675095;85;21241;-80
2020/12/28 02:55:25;;;;;;;42.33;25.15;;;;;;;9.02;100.00;101114.14;1675335;85;22172;-79
2020/12/28 02:58:12;;;;;;;42.75;23.80;;;;;;;9.02;100.00;101104.24;1675166;85;20992;-80
2020/12/28 03:00:59;;;;;;;38.75;23.80;;;;;;;9.04;100.00;101126.53;1675038;85;21162;-80
2020/12/28 03:03:45;;;;;;;43.38;25.25;;;;;;;9.07;100.00;101135.89;1675242;85;21658;-79
2020/12/28 03:06:31;;;;;;;38.33;22.20;;;;;;;9.08;100.00;101138.02;1675087;85;21126;-80
2020/12/28 03:09:18;;;;;;;38.88;23.30;;;;;;;9.10;100.00;101147.38;1675397;85;21309;-79
2020/12/28 03:12:07;;;;;;;33.98;23.40;;;;;;;9.09;100.00;101136.67;1675212;85;21637;-79
2020/12/28 03:14:53;;;;;;;38.02;24.98;;;;;;;9.07;100.00;101130.71;1675245;85;21216;-79
2020/12/28 03:17:39;;;;;;;34.10;23.30;;;;;;;9.08;100.00;101136.73;1675398;85;21060;-78
2020/12/28 03:20:09;;;;;;;45.63;25.02;;;;;;;9.11;100.00;101152.10;1634693;84;21233;-79
2020/12/28 03:22:55;;;;;;;42.53;23.20;;;;;;;9.11;100.00;101152.10;1675081;85;21365;-79
2020/12/28 03:25:41;;;;;;;39.73;24.52;;;;;;;9.12;100.00;101137.80;1675159;85;21158;-79
2020/12/28 03:28:27;;;;;;;43.15;23.73;;;;;;;9.13;100.00;101140.74;1675417;85;21087;-79
2020/12/28 03:31:14;;;;;;;40.12;23.07;;;;;;;9.13;100.00;101139.45;1585486;90;21358;-78
2020/12/28 03:34:01;;;;;;;38.90;22.77;;;;;;;9.12;100.00;101145.56;1585797;90;21272;-81
2020/12/28 03:36:47;;;;;;;35.98;22.80;;;;;;;9.13;100.00;101147.22;1640119;84;21485;-79
2020/12/28 03:39:33;;;;;;;36.90;22.73;;;;;;;9.15;100.00;101144.11;1675221;85;21110;-76
2020/12/28 03:42:20;;;;;;;41.55;23.32;;;;;;;9.14;100.00;101130.77;1675464;85;21601;-78
2020/12/28 03:45:06;;;;;;;42.98;24.02;;;;;;;9.12;100.00;101141.68;1675239;85;21685;-81
2020/12/28 03:47:52;;;;;;;42.65;25.55;;;;;;;9.12;100.00;101124.86;1675516;85;21198;-81
2020/12/28 03:50:38;;;;;;;42.00;25.27;;;;;;;9.10;100.00;101125.37;1675221;85;21447;-79
2020/12/28 03:53:24;;;;;;;46.25;24.85;;;;;;;9.06;100.00;101120.00;1675156;84;21094;-79
2020/12/28 03:56:12;;;;;;;35.80;22.25;;;;;;;9.07;100.00;101113.05;1675337;85;21111;-79
2020/12/28 03:58:59;;;;;;;39.42;23.62;;;;;;;9.07;100.00;101105.28;1675288;85;21206;-79
2020/12/28 04:01:45;;;;;;;40.25;23.70;;;;;;;9.05;100.00;101098.90;1675407;85;21692;-79
2020/12/28 04:04:31;;;;;;;37.83;22.80;;;;;;;9.06;100.00;101094.56;1675399;85;21340;-78
2020/12/28 04:07:18;;;;;;;40.78;23.12;;;;;;;9.08;100.00;101090.13;1675266;85;21262;-79
2020/12/28 04:10:06;;;;;;;38.58;23.27;;;;;;;9.08;100.00;101078.48;1675257;85;21692;-80
2020/12/28 04:12:38;;;;;;;34.13;21.42;;;;;;;9.08;100.00;101075.89;1673173;85;21194;-79
2020/12/28 04:15:06;;;;;;;39.25;22.75;;;;;;;9.09;100.00;101078.41;1675310;84;21194;-76
2020/12/28 04:17:34;;;;;;;36.88;21.62;;;;;;;9.07;100.00;101073.75;1675267;85;21258;-79
2020/12/28 04:20:03;;;;;;;38.58;22.75;;;;;;;9.05;100.00;101073.02;1675227;85;20991;-79
2020/12/28 04:22:30;;;;;;;33.42;21.48;;;;;;;9.04;100.00;101073.92;1675270;85;21159;-79
2020/12/28 04:24:58;;;;;;;40.38;23.10;;;;;;;9.03;100.00;101060.14;1675095;84;21135;-79
2020/12/28 04:27:26;;;;;;;42.15;24.02;;;;;;;9.03;100.00;101071.78;1675086;85;21170;-79
2020/12/28 04:29:54;;;;;;;33.18;22.07;;;;;;;9.03;100.00;101074.83;1675157;84;21372;-79
2020/12/28 04:32:23;;;;;;;38.80;22.70;;;;;;;9.04;100.00;101079.09;1674962;85;21170;-80
2020/12/28 04:34:51;;;;;;;36.30;23.70;;;;;;;9.06;100.00;101085.50;1675161;85;20964;-78
2020/12/28 04:37:18;;;;;;;34.88;22.35;;;;;;;9.07;100.00;101100.09;1675323;84;21150;-79
2020/12/28 04:39:46;;;;;;;43.28;22.27;;;;;;;9.07;100.00;101101.39;1675087;84;21174;-78
2020/12/28 04:42:17;;;;;;;36.25;23.27;;;;;;;9.10;100.00;101085.23;1675106;85;21645;-78
2020/12/28 04:44:45;;;;;;;41.48;23.77;;;;;;;9.11;100.00;101084.33;1625912;85;21451;-78
2020/12/28 04:47:13;;;;;;;40.28;23.90;;;;;;;9.12;100.00;101083.88;1648334;85;21522;-79
2020/12/28 04:49:41;;;;;;;37.05;21.95;;;;;;;9.13;100.00;101089.41;1625315;85;21142;-79
2020/12/28 04:52:09;;;;;;;38.02;21.35;;;;;;;9.13;100.00;101099.31;1648234;85;21095;-78
2020/12/28 04:54:38;;;;;;;38.15;22.67;;;;;;;9.15;100.00;101094.08;1675270;85;21305;-80
2020/12/28 04:57:07;;;;;;;44.35;23.52;;;;;;;9.16;100.00;101084.10;1675069;85;21229;-79
2020/12/28 04:59:35;;;;;;;39.45;22.55;;;;;;;9.15;100.00;101072.91;1675110;84;21182;-79
2020/12/28 05:02:04;;;;;;;39.27;22.20;;;;;;;9.15;100.00;101066.44;1674993;84;21090;-78
2020/12/28 05:04:32;;;;;;;42.00;22.52;;;;;;;9.15;100.00;101069.02;1675250;84;21506;-80
2020/12/28 05:07:05;;;;;;;40.48;23.10;;;;;;;9.15;100.00;101065.14;1675206;84;21282;-79
2020/12/28 05:09:33;;;;;;;41.70;21.17;;;;;;;9.14;100.00;101077.70;1675212;85;21214;-78
2020/12/28 05:12:04;;;;;;;46.08;23.47;;;;;;;9.15;100.00;101079.38;1675340;85;21083;-78
2020/12/28 05:14:32;;;;;;;44.45;24.45;;;;;;;9.16;100.00;101079.73;1675310;85;21103;-79
2020/12/28 05:17:08;;;;;;;38.33;22.60;;;;;;;9.17;100.00;101081.88;1675393;84;21593;-80
2020/12/28 05:19:36;;;;;;;38.92;22.10;;;;;;;9.15;100.00;101078.09;1675252;85;21279;-79
2020/12/28 05:22:04;;;;;;;40.35;22.85;;;;;;;9.14;100.00;101072.52;1674924;84;21181;-79
2020/12/28 05:24:32;;;;;;;39.13;21.85;;;;;;;9.16;100.00;101071.97;1675237;84;21048;-79
2020/12/28 05:27:00;;;;;;;43.08;22.40;;;;;;;9.19;100.00;101071.80;1675064;85;21123;-79
2020/12/28 05:29:28;;;;;;;41.10;22.10;;;;;;;9.19;100.00;101069.21;1675356;84;21171;-78
2020/12/28 05:31:56;;;;;;;41.88;24.00;;;;;;;9.21;100.00;101085.97;1675322;84;21206;-80
2020/12/28 05:34:26;;;;;;;46.60;23.40;;;;;;;9.23;100.00;101086.72;1675114;85;21626;-80
2020/12/28 05:36:57;;;;;;;46.02;23.83;;;;;;;9.23;100.00;101087.56;1675115;85;21210;-77
2020/12/28 05:39:27;;;;;;;43.55;23.35;;;;;;;9.25;100.00;101101.28;1675116;85;21107;-78
2020/12/28 05:42:11;;;;;;;39.78;22.93;;;;;;;9.28;100.00;101109.34;1675244;85;21672;-78
2020/12/28 05:44:30;;;;;;;39.48;23.05;;;;;;;9.30;100.00;101106.20;1673872;85;22132;-79
2020/12/28 05:47:09;;;;;;;31.27;21.12;;;;;;;9.33;100.00;101100.39;1646118;87;21599;-78
2020/12/28 05:49:40;;;;;;;40.88;23.73;;;;;;;9.36;100.00;101091.62;1675150;84;21170;-79
2020/12/28 05:52:10;;;;;;;40.00;22.55;;;;;;;9.34;100.00;101086.98;1675041;85;21210;-79
2020/12/28 05:54:38;;;;;;;41.42;22.82;;;;;;;9.34;100.00;101085.70;1675148;84;21177;-76
2020/12/28 05:57:08;;;;;;;41.05;22.17;;;;;;;9.35;100.00;101085.59;1675245;84;21205;-77
2020/12/28 05:59:36;;;;;;;38.63;22.98;;;;;;;9.34;100.00;101080.06;1675008;85;21657;-79
2020/12/28 06:02:10;;;;;;;36.38;22.58;;;;;;;9.35;100.00;101080.41;1675240;85;21661;-78
2020/12/28 06:04:38;;;;;;;38.78;22.00;;;;;;;9.35;100.00;101072.64;1625234;85;21155;-79
2020/12/28 06:07:06;;;;;;;41.60;23.00;;;;;;;9.34;100.00;101072.75;1675192;84;21197;-78
2020/12/28 06:09:34;;;;;;;42.33;22.15;;;;;;;9.33;100.00;101068.47;1675304;85;21382;-78
2020/12/28 06:12:07;;;;;;;39.40;21.77;;;;;;;9.33;100.00;101060.70;1675056;84;21122;-78
2020/12/28 06:14:39;;;;;;;44.55;22.73;;;;;;;9.33;100.00;101064.14;1674875;85;21378;-79
2020/12/28 06:17:10;;;;;;;43.30;23.92;;;;;;;9.34;100.00;101059.80;1675039;85;21238;-80
2020/12/28 06:19:41;;;;;;;44.93;23.57;;;;;;;9.32;100.00;101053.39;1647970;87;21214;-79
2020/12/28 06:22:23;;;;;;;38.02;21.93;;;;;;;9.32;100.00;101048.21;1647750;87;22199;-78
2020/12/28 06:25:06;;;;;;;39.43;21.77;;;;;;;9.32;100.00;101055.14;1648033;85;21162;-76
2020/12/28 06:27:44;;;;;;;38.85;21.80;;;;;;;9.34;100.00;101044.25;1647365;87;21119;-76
2020/12/28 06:30:22;;;;;;;36.68;20.88;;;;;;;9.35;100.00;101036.87;1647761;85;21234;-77
2020/12/28 06:33:04;;;;;;;36.63;21.00;;;;;;;9.36;100.00;101038.06;1647931;87;22439;-77
2020/12/28 06:35:32;;;;;;;37.55;22.25;;;;;;;9.38;100.00;101045.28;1647831;87;21419;-76
2020/12/28 06:38:01;;;;;;;42.45;21.33;;;;;;;9.41;100.00;101052.88;1647636;87;21178;-77
2020/12/28 06:40:39;;;;;;;38.50;21.07;;;;;;;9.43;100.00;101065.31;1647829;85;21071;-80
2020/12/28 06:43:19;;;;;;;45.05;23.50;;;;;;;9.46;100.00;101066.44;1647836;86;21547;-76
2020/12/28 06:45:49;;;;;;;40.67;22.17;;;;;;;9.48;100.00;101059.41;1646231;87;21226;-77
2020/12/28 06:48:24;;;;;;;43.05;21.90;;;;;;;9.52;100.00;101058.78;1646188;87;21293;-75
2020/12/28 06:50:53;;;;;;;40.78;23.10;;;;;;;9.53;100.00;101058.70;1646184;87;20961;-77
2020/12/28 06:53:23;;;;;;;43.50;22.87;;;;;;;9.57;100.00;101048.52;1646076;85;21115;-78
2020/12/28 06:55:56;;;;;;;34.27;21.07;;;;;;;9.60;100.00;101041.06;1646026;85;21099;-78
2020/12/28 06:58:24;;;;;;;45.78;20.65;;;;;;;9.61;100.00;101044.02;1632615;85;21606;-78
2020/12/28 07:01:07;;;;;;;36.17;19.98;;;;;;;9.63;100.00;101034.88;1639487;86;21269;-79
2020/12/28 07:03:35;;;;;;;41.25;20.25;;;;;;;9.67;100.00;101049.34;1639708;87;21122;-80
2020/12/28 07:06:04;;;;;;;35.43;20.17;;;;;;;9.68;100.00;101042.76;1639938;86;21106;-81
2020/12/28 07:08:39;;;;;;;34.13;20.27;;;;;;;9.69;100.00;101031.48;1639791;87;21169;-78
2020/12/28 07:11:04;;;;;;;;;;;;;;;9.71;100.00;101022.30;1642103;87;21221;-80
2020/12/28 07:13:33;;;;;;;36.83;19.32;;;;;;;9.71;100.00;101022.30;1639945;87;21288;-80
2020/12/28 07:16:05;;;;;;;33.28;19.92;;;;;;;9.72;100.00;101027.42;1638690;87;21149;-81
2020/12/28 07:18:34;;;;;;;38.15;20.10;;;;;;;9.75;100.00;101031.13;1639961;87;21633;-81
2020/12/28 07:21:03;;;;;;;30.45;19.57;;;;;;;9.76;100.00;101028.92;1639703;87;23124;-78
2020/12/28 07:23:31;;;;;;;37.10;20.60;;;;;;;9.79;100.00;101020.97;1639910;86;21129;-79
2020/12/28 07:26:11;;;;;;;38.00;18.90;;;;;;;9.79;100.00;101018.38;1642358;85;21380;-80
2020/12/28 07:28:40;;;;;;;36.00;19.45;;;;;;;9.83;100.00;101030.22;1644683;87;21245;-80
2020/12/28 07:31:08;;;;;;;35.45;19.05;;;;;;;9.88;100.00;101027.37;1659891;85;21178;-81
2020/12/28 07:33:47;;;;;;;35.08;19.52;;;;;;;9.93;100.00;101019.70;1672003;85;21167;-82
2020/12/28 07:36:17;;;;;;;33.48;19.42;;;;;;;9.96;100.00;101007.86;1671833;84;21117;-82
2020/12/28 07:38:48;;;;;;;34.98;20.82;;;;;;;10.00;100.00;101006.77;1672216;85;21208;-80
2020/12/28 07:41:19;;;;;;;34.70;19.23;;;;;;;10.00;100.00;101010.66;1672262;85;21051;-81
2020/12/28 07:43:52;;;;;;;37.03;20.30;;;;;;;10.00;100.00;101015.84;1645117;85;21617;-80
2020/12/28 07:49:26;;;;;;;38.83;19.17;;;;;;;10.11;100.00;101003.06;1835834;78;24582;-81
2020/12/28 07:52:13;;;;;;;33.18;19.48;;;;;;;10.13;100.00;101008.63;1803533;77;21018;-81
2020/12/28 07:55:05;;;;;;;33.50;19.30;;;;;;;10.17;100.00;101017.48;1781494;79;21190;-82
2020/12/28 07:57:59;;;;;;;30.75;17.95;;;;;;;10.22;100.00;101020.63;1780432;79;21155;-80
2020/12/28 08:00:36;;;;;;;31.68;18.60;;;;;;;10.24;100.00;101015.38;1800942;79;20962;-80
2020/12/28 08:03:12;;;;;;;33.08;18.75;;;;;;;10.27;100.00;101014.73;1802509;79;21179;-82
2020/12/28 08:05:40;;;;;;;31.17;17.40;;;;;;;10.32;100.00;101038.62;1796087;78;20918;-80
2020/12/28 08:08:23;;;;;;;37.17;18.82;;;;;;;10.34;100.00;101016.02;1783650;77;21137;-82
2020/12/28 08:10:52;;;;;;;;;;;;;;;10.35;100.00;101019.45;1779583;79;21035;-80
2020/12/28 08:13:31;;;;;;;31.68;17.75;;;;;;;10.36;100.00;101029.75;1776292;79;20167;-80
2020/12/28 08:16:11;;;;;;;34.88;18.23;;;;;;;10.37;100.00;101029.29;1775842;79;21065;-81
2020/12/28 08:18:53;;;;;;;33.65;18.62;;;;;;;10.40;100.00;101030.41;1776410;80;21187;-81
2020/12/28 08:21:25;;;;;;;31.40;17.77;;;;;;;10.40;100.00;101019.53;1776503;79;21186;-84
2020/12/28 08:23:56;;;;;;;37.50;18.25;;;;;;;10.36;100.00;101014.18;1776572;80;21662;-81
2020/12/28 08:26:26;;;;;;;29.95;18.73;;;;;;;10.30;100.00;101001.58;1776645;80;21101;-85
2020/12/28 08:28:58;;;;;;;31.65;18.92;;;;;;;10.35;100.00;100990.91;1776390;80;21077;-81
2020/12/28 08:31:29;;;;;;;32.55;18.60;;;;;;;10.34;100.00;100996.55;1775605;80;22085;-77
2020/12/28 08:34:02;;;;;;;34.33;17.98;;;;;;;10.37;100.00;100983.89;1796463;79;22309;-78
2020/12/28 08:36:31;;;;;;;;;;;;;;;10.42;100.00;100985.73;1808053;79;21535;-78
2020/12/28 08:39:01;;;;;;;33.38;18.20;;;;;;;10.53;100.00;100978.95;1790226;79;20116;-78
2020/12/28 08:41:29;;;;;;;34.33;18.15;;;;;;;10.64;100.00;100983.50;1774879;79;21168;-81
2020/12/28 08:43:57;;;;;;;28.17;16.48;;;;;;;10.74;100.00;100979.87;1783411;77;21220;-80
2020/12/28 08:46:25;;;;;;;32.98;16.87;;;;;;;10.81;100.00;100978.58;1789185;78;21963;-78
2020/12/28 08:48:54;;;;;;;30.75;17.40;;;;;;;10.87;100.00;100973.84;1772167;79;21608;-78
2020/12/28 08:51:22;;;;;;;35.20;17.30;;;;;;;10.91;100.00;100971.89;1780521;79;21470;-79
2020/12/28 08:53:51;;;;;;;35.52;16.80;;;;;;;10.93;100.00;100963.53;1765826;81;21021;-78
2020/12/28 08:56:18;;;;;;;25.75;16.15;;;;;;;10.97;100.00;100982.73;1765887;81;21127;-79
2020/12/28 08:58:49;;;;;;;32.65;18.15;;;;;;;11.01;100.00;100992.44;1765769;80;21182;-78
2020/12/28 09:01:17;;;;;;;34.43;17.67;;;;;;;11.05;100.00;100979.18;1765414;81;21006;-81
2020/12/28 09:03:47;;;;;;;36.20;18.42;;;;;;;11.08;100.00;100980.74;1775975;78;21088;-80
2020/12/28 09:06:15;;;;;;;28.15;16.07;;;;;;;11.10;100.00;100975.01;1770617;79;21814;-80
2020/12/28 09:08:43;;;;;;;36.65;17.77;;;;;;;11.16;100.00;100983.70;1780276;78;21236;-79
2020/12/28 09:11:14;;;;;;;28.95;17.73;;;;;;;11.22;100.00;100976.82;1796819;79;22014;-83
2020/12/28 09:13:44;;;;;;;34.85;17.87;;;;;;;11.25;100.00;100983.12;1796491;78;21074;-80
2020/12/28 09:16:14;;;;;;;32.53;16.57;;;;;;;11.25;100.00;100985.72;1728533;83;21064;-78
2020/12/28 09:18:42;;;;;;;27.17;16.10;;;;;;;11.23;100.00;100986.75;1719506;81;21054;-76
2020/12/28 09:21:10;;;;;;;28.27;15.72;;;;;;;11.19;100.00;100980.08;1708647;84;21080;-83
2020/12/28 09:23:39;;;;;;;36.55;17.00;;;;;;;11.16;100.00;100988.91;1765712;80;21192;-78
2020/12/28 09:26:07;;;;;;;32.30;16.55;;;;;;;11.12;100.00;100988.72;1773977;79;20991;-85
2020/12/28 09:28:35;;;;;;;32.58;17.30;;;;;;;11.10;100.00;100984.91;1793831;79;20971;-77
2020/12/28 09:31:05;;;;;;;30.97;16.32;;;;;;;11.09;100.00;100987.16;1796881;79;21659;-77
2020/12/28 09:33:37;;;;;;;35.17;16.73;;;;;;;11.10;100.00;100982.31;1796737;79;21152;-80
2020/12/28 09:36:06;;;;;;;36.58;18.02;;;;;;;11.11;100.00;100980.55;1796943;79;26630;-79
2020/12/28 09:38:37;;;;;;;33.83;17.15;;;;;;;11.14;100.00;100974.70;1796884;79;21022;-79
2020/12/28 09:41:05;;;;;;;33.95;17.50;;;;;;;11.18;100.00;100977.94;1797018;79;21102;-81
2020/12/28 09:43:33;;;;;;;41.05;16.40;;;;;;;11.20;100.00;100980.45;1797051;79;21026;-81
2020/12/28 09:46:01;;;;;;;36.77;17.25;;;;;;;11.22;100.00;100975.52;1792350;78;21125;-77
2020/12/28 09:48:29;;;;;;;28.95;15.25;;;;;;;11.28;100.00;100970.39;1767009;80;21212;-82
2020/12/28 09:51:00;;;;;;;31.77;16.05;;;;;;;11.30;100.00;100964.62;1744332;81;20983;-82
2020/12/28 09:53:28;;;;;;;35.55;16.52;;;;;;;11.31;100.00;100961.10;1746284;79;20931;-83
2020/12/28 09:55:57;;;;;;;31.40;15.53;;;;;;;11.33;100.00;100953.57;1785347;79;21010;-79
2020/12/28 09:58:25;;;;;;;37.13;17.23;;;;;;;11.38;100.00;100946.33;1794894;79;21152;-82
2020/12/28 10:00:56;;;;;;;33.15;15.55;;;;;;;11.44;100.00;100932.94;1803193;79;21014;-80
2020/12/28 10:03:30;;;;;;;30.40;15.25;;;;;;;11.52;100.00;100938.91;1797633;79;21628;-80
2020/12/28 10:05:58;;;;;;;27.60;15.60;;;;;;;11.57;100.00;100929.06;1801533;79;21129;-81
2020/12/28 10:08:27;;;;;;;37.98;16.32;;;;;;;11.62;100.00;100922.63;1801182;79;21062;-81
2020/12/28 10:10:56;;;;;;;33.00;14.98;;;;;;;11.64;100.00;100916.88;1798571;79;21062;-83
2020/12/28 10:13:24;;;;;;;31.68;15.05;;;;;;;11.73;100.00;100914.61;1803351;79;22086;-81
2020/12/28 10:15:53;;;;;;;28.38;16.77;;;;;;;11.84;100.00;100910.84;1779640;79;20955;-81
2020/12/28 10:18:30;;;;;;;33.33;16.20;;;;;;;12.10;100.00;100911.19;1771986;79;21073;-81
2020/12/28 10:20:58;;;;;;;29.63;16.40;;;;;;;12.26;100.00;100901.86;1771713;80;21521;-79
2020/12/28 10:23:26;;;;;;;31.55;16.42;;;;;;;12.28;99.23;100898.23;1772087;79;21166;-81
2020/12/28 10:25:55;;;;;;;27.00;15.65;;;;;;;12.24;98.63;100903.75;1779490;79;21285;-81
2020/12/28 10:28:28;;;;;;;32.38;15.93;;;;;;;12.20;98.88;100890.11;1773549;79;21212;-81
2020/12/28 10:30:56;;;;;;;29.77;16.05;;;;;;;12.20;99.04;100889.66;1803267;78;21116;-79
2020/12/28 10:33:24;;;;;;;29.50;15.28;;;;;;;12.20;98.52;100881.84;1800762;79;21544;-78
2020/12/28 10:35:52;;;;;;;29.40;15.05;;;;;;;12.18;98.40;100881.59;1773446;79;21485;-80
2020/12/28 10:38:22;;;;;;;29.25;15.23;;;;;;;12.14;98.22;100877.53;1803357;79;21638;-78
2020/12/28 10:40:52;;;;;;;30.17;16.35;;;;;;;12.10;98.30;100889.91;1802276;79;21061;-81
2020/12/28 10:43:22;;;;;;;;;;;;;;;12.06;98.19;100886.34;1806192;79;20979;-81
2020/12/28 10:45:50;;;;;;;31.42;15.40;;;;;;;12.01;98.17;100888.41;1803562;79;20129;-80
2020/12/28 10:48:19;;;;;;;30.30;15.72;;;;;;;11.91;98.15;100884.77;1799890;78;21232;-79
2020/12/28 10:50:47;;;;;;;28.95;15.48;;;;;;;11.83;98.57;100875.37;1796363;79;21888;-78
2020/12/28 10:53:15;;;;;;;30.05;15.65;;;;;;;11.79;98.86;100872.14;1796271;79;21680;-80
2020/12/28 10:55:45;;;;;;;30.80;16.07;;;;;;;11.77;99.03;100867.98;1796248;79;21014;-79
2020/12/28 10:58:13;;;;;;;33.98;16.62;;;;;;;11.74;99.27;100865.13;1794563;79;20904;-79
2020/12/28 11:00:42;;;;;;;26.52;15.03;;;;;;;11.72;99.34;100871.34;1796487;79;21141;-81
2020/12/28 11:03:09;;;;;;;34.10;15.83;;;;;;;11.68;99.08;100855.09;1787835;79;21323;-82
2020/12/28 11:05:38;;;;;;;29.67;14.78;;;;;;;11.65;99.20;100860.49;1796429;79;21082;-82
2020/12/28 11:08:06;;;;;;;28.92;14.78;;;;;;;11.65;99.21;100859.19;1775393;79;21165;-80
2020/12/28 11:10:34;;;;;;;30.10;14.55;;;;;;;11.71;99.29;100858.00;1785532;79;21156;-81
2020/12/28 11:13:01;;;;;;;32.67;14.33;;;;;;;11.75;99.42;100869.38;1775841;79;21216;-80
2020/12/28 11:15:29;;;;;;;30.08;13.88;;;;;;;11.82;99.24;100869.33;1787999;79;21321;-82
2020/12/28 11:17:59;;;;;;;30.17;14.65;;;;;;;11.92;99.18;100872.98;1777757;79;21023;-80
2020/12/28 11:20:27;;;;;;;29.02;14.93;;;;;;;12.01;99.00;100859.34;1775361;78;21497;-82
2020/12/28 11:22:54;;;;;;;28.87;15.90;;;;;;;12.08;98.55;100862.34;1792967;80;21218;-83
2020/12/28 11:25:22;;;;;;;29.55;15.23;;;;;;;12.11;98.31;100854.33;1768417;79;21159;-82
2020/12/28 11:27:51;;;;;;;28.15;15.43;;;;;;;12.13;97.67;100849.38;1777040;79;21194;-81
2020/12/28 11:30:18;;;;;;;30.30;14.38;;;;;;;12.17;97.45;100848.70;1770865;78;21220;-82
2020/12/28 11:32:46;;;;;;;27.67;15.05;;;;;;;12.23;97.22;100846.97;1765320;80;21631;-82
2020/12/28 11:35:14;;;;;;;29.60;15.65;;;;;;;12.27;96.59;100847.59;1798518;78;21157;-80